Weather at Bata Airport

Public forecast

Using degrees Celsius for public forecast. Weather courtesy of forecast.io.

Current aviation weather report (METAR) for Bata Airport

Report is more than 6 hours old.

2022/11/13 15:00 (retrieved 2 years ago)

FGBT 131500Z 27008KT 9999 SCT010 29/26 Q1008

Aviation forecast (TAF) for Bata Airport

Forecast is more than 12 hours old.

2023/02/22 12:00 (retrieved 1 year ago)

TAF FGBT 221100Z 2212/2312 22006KT 9999 SCT010 PROB30 TEMPO 2215/2221 3000 TSRA BKN010 SCT020CB PROB40 TEMPO 2305/2310 TS BKN010 FEW020CB